sensor_id;sensor_type;location;lat;lon;timestamp;P1;durP1;ratioP1;P2;durP2;ratioP2
57191;SDS011;43052;52.588;13.396;2023-09-12T00:00:45;20.65;;;18.60;;
57191;SDS011;43052;52.588;13.396;2023-09-12T00:03:11;21.80;;;18.10;;
57191;SDS011;43052;52.588;13.396;2023-09-12T00:05:36;19.88;;;17.77;;
57191;SDS011;43052;52.588;13.396;2023-09-12T00:08:01;19.65;;;17.35;;
57191;SDS011;43052;52.588;13.396;2023-09-12T00:10:28;19.40;;;17.33;;
57191;SDS011;43052;52.588;13.396;2023-09-12T00:12:54;21.60;;;18.20;;
57191;SDS011;43052;52.588;13.396;2023-09-12T00:15:19;20.00;;;17.88;;
57191;SDS011;43052;52.588;13.396;2023-09-12T00:17:45;20.73;;;18.52;;
57191;SDS011;43052;52.588;13.396;2023-09-12T00:20:10;19.63;;;17.63;;
57191;SDS011;43052;52.588;13.396;2023-09-12T00:22:36;20.15;;;18.15;;
57191;SDS011;43052;52.588;13.396;2023-09-12T00:25:01;19.58;;;17.50;;
57191;SDS011;43052;52.588;13.396;2023-09-12T00:27:27;21.98;;;18.38;;
57191;SDS011;43052;52.588;13.396;2023-09-12T00:29:52;19.73;;;17.73;;
57191;SDS011;43052;52.588;13.396;2023-09-12T00:32:17;19.23;;;17.35;;
57191;SDS011;43052;52.588;13.396;2023-09-12T00:34:42;20.52;;;18.20;;
57191;SDS011;43052;52.588;13.396;2023-09-12T00:37:08;22.42;;;18.23;;
57191;SDS011;43052;52.588;13.396;2023-09-12T00:39:33;20.50;;;18.35;;
57191;SDS011;43052;52.588;13.396;2023-09-12T00:41:58;20.23;;;18.10;;
57191;SDS011;43052;52.588;13.396;2023-09-12T00:44:23;20.88;;;18.83;;
57191;SDS011;43052;52.588;13.396;2023-09-12T00:46:49;20.75;;;18.65;;
57191;SDS011;43052;52.588;13.396;2023-09-12T00:49:15;20.58;;;18.58;;
57191;SDS011;43052;52.588;13.396;2023-09-12T00:51:41;19.95;;;17.83;;
57191;SDS011;43052;52.588;13.396;2023-09-12T00:54:07;20.90;;;18.85;;
57191;SDS011;43052;52.588;13.396;2023-09-12T00:56:33;20.40;;;18.40;;
57191;SDS011;43052;52.588;13.396;2023-09-12T00:58:58;20.23;;;18.17;;
57191;SDS011;43052;52.588;13.396;2023-09-12T01:01:24;19.98;;;18.08;;
57191;SDS011;43052;52.588;13.396;2023-09-12T01:03:49;21.27;;;18.48;;
57191;SDS011;43052;52.588;13.396;2023-09-12T01:06:15;20.27;;;18.38;;
57191;SDS011;43052;52.588;13.396;2023-09-12T01:08:44;20.40;;;18.40;;
57191;SDS011;43052;52.588;13.396;2023-09-12T01:11:09;21.67;;;19.38;;
57191;SDS011;43052;52.588;13.396;2023-09-12T01:13:35;21.77;;;18.30;;
57191;SDS011;43052;52.588;13.396;2023-09-12T01:16:00;20.08;;;18.20;;
57191;SDS011;43052;52.588;13.396;2023-09-12T01:18:25;19.70;;;17.75;;
57191;SDS011;43052;52.588;13.396;2023-09-12T01:21:04;20.55;;;18.38;;
57191;SDS011;43052;52.588;13.396;2023-09-12T01:24:01;20.83;;;18.27;;
57191;SDS011;43052;52.588;13.396;2023-09-12T01:29:42;21.05;;;19.02;;
57191;SDS011;43052;52.588;13.396;2023-09-12T01:32:10;20.90;;;18.65;;
57191;SDS011;43052;52.588;13.396;2023-09-12T01:34:35;20.67;;;18.65;;
57191;SDS011;43052;52.588;13.396;2023-09-12T01:37:01;23.45;;;19.10;;
57191;SDS011;43052;52.588;13.396;2023-09-12T01:39:26;22.40;;;19.08;;
57191;SDS011;43052;52.588;13.396;2023-09-12T01:41:51;20.60;;;18.65;;
57191;SDS011;43052;52.588;13.396;2023-09-12T01:44:19;20.63;;;18.52;;
57191;SDS011;43052;52.588;13.396;2023-09-12T01:46:49;21.05;;;18.95;;
57191;SDS011;43052;52.588;13.396;2023-09-12T01:49:15;22.27;;;18.80;;
57191;SDS011;43052;52.588;13.396;2023-09-12T01:51:44;20.63;;;18.58;;
57191;SDS011;43052;52.588;13.396;2023-09-12T01:54:10;21.85;;;19.60;;
57191;SDS011;43052;52.588;13.396;2023-09-12T01:56:35;21.05;;;18.77;;
57191;SDS011;43052;52.588;13.396;2023-09-12T01:59:02;21.75;;;19.60;;
57191;SDS011;43052;52.588;13.396;2023-09-12T02:01:27;21.00;;;18.90;;
57191;SDS011;43052;52.588;13.396;2023-09-12T02:03:53;21.30;;;19.02;;
57191;SDS011;43052;52.588;13.396;2023-09-12T02:06:18;20.48;;;18.33;;
57191;SDS011;43052;52.588;13.396;2023-09-12T02:08:43;20.88;;;18.73;;
57191;SDS011;43052;52.588;13.396;2023-09-12T02:11:09;22.20;;;19.90;;
57191;SDS011;43052;52.588;13.396;2023-09-12T02:13:34;21.83;;;19.73;;
57191;SDS011;43052;52.588;13.396;2023-09-12T02:15:59;21.95;;;19.65;;
57191;SDS011;43052;52.588;13.396;2023-09-12T02:18:25;22.25;;;18.90;;
57191;SDS011;43052;52.588;13.396;2023-09-12T02:20:50;22.38;;;20.00;;
57191;SDS011;43052;52.588;13.396;2023-09-12T02:23:15;21.60;;;19.40;;
57191;SDS011;43052;52.588;13.396;2023-09-12T02:25:41;22.02;;;19.42;;
57191;SDS011;43052;52.588;13.396;2023-09-12T02:28:06;21.10;;;18.83;;
57191;SDS011;43052;52.588;13.396;2023-09-12T02:30:31;27.20;;;20.13;;
57191;SDS011;43052;52.588;13.396;2023-09-12T02:32:56;22.05;;;19.67;;
57191;SDS011;43052;52.588;13.396;2023-09-12T02:35:22;22.70;;;20.30;;
57191;SDS011;43052;52.588;13.396;2023-09-12T02:37:47;22.33;;;20.02;;
57191;SDS011;43052;52.588;13.396;2023-09-12T02:40:12;22.30;;;20.00;;
57191;SDS011;43052;52.588;13.396;2023-09-12T02:42:39;23.38;;;21.15;;
57191;SDS011;43052;52.588;13.396;2023-09-12T02:45:05;22.23;;;20.02;;
57191;SDS011;43052;52.588;13.396;2023-09-12T02:47:30;23.63;;;21.40;;
57191;SDS011;43052;52.588;13.396;2023-09-12T02:49:55;24.23;;;21.75;;
57191;SDS011;43052;52.588;13.396;2023-09-12T02:52:21;23.80;;;21.60;;
57191;SDS011;43052;52.588;13.396;2023-09-12T02:54:46;24.45;;;22.00;;
57191;SDS011;43052;52.588;13.396;2023-09-12T02:57:11;23.85;;;21.30;;
57191;SDS011;43052;52.588;13.396;2023-09-12T02:59:36;24.63;;;21.48;;
57191;SDS011;43052;52.588;13.396;2023-09-12T03:02:02;23.70;;;21.23;;
57191;SDS011;43052;52.588;13.396;2023-09-12T03:04:27;25.60;;;22.48;;
57191;SDS011;43052;52.588;13.396;2023-09-12T03:06:53;24.40;;;21.98;;
57191;SDS011;43052;52.588;13.396;2023-09-12T03:09:18;24.75;;;22.27;;
57191;SDS011;43052;52.588;13.396;2023-09-12T03:11:44;23.52;;;20.98;;
57191;SDS011;43052;52.588;13.396;2023-09-12T03:14:09;22.75;;;20.55;;
57191;SDS011;43052;52.588;13.396;2023-09-12T03:16:35;23.48;;;20.15;;
57191;SDS011;43052;52.588;13.396;2023-09-12T03:19:01;23.67;;;21.35;;
57191;SDS011;43052;52.588;13.396;2023-09-12T03:21:27;23.77;;;21.25;;
57191;SDS011;43052;52.588;13.396;2023-09-12T03:23:52;23.75;;;21.42;;
57191;SDS011;43052;52.588;13.396;2023-09-12T03:26:17;23.85;;;21.45;;
57191;SDS011;43052;52.588;13.396;2023-09-12T03:28:43;23.30;;;20.95;;
57191;SDS011;43052;52.588;13.396;2023-09-12T03:31:12;22.73;;;20.52;;
57191;SDS011;43052;52.588;13.396;2023-09-12T03:33:39;23.75;;;21.33;;
57191;SDS011;43052;52.588;13.396;2023-09-12T03:36:05;23.30;;;20.90;;
57191;SDS011;43052;52.588;13.396;2023-09-12T03:38:31;23.40;;;21.20;;
57191;SDS011;43052;52.588;13.396;2023-09-12T03:40:57;24.27;;;21.92;;
57191;SDS011;43052;52.588;13.396;2023-09-12T03:43:22;23.38;;;20.90;;
57191;SDS011;43052;52.588;13.396;2023-09-12T03:45:47;23.90;;;21.48;;
57191;SDS011;43052;52.588;13.396;2023-09-12T03:48:12;23.70;;;21.33;;
57191;SDS011;43052;52.588;13.396;2023-09-12T03:50:38;27.15;;;20.83;;
57191;SDS011;43052;52.588;13.396;2023-09-12T03:53:03;23.08;;;20.58;;
57191;SDS011;43052;52.588;13.396;2023-09-12T03:55:28;23.70;;;21.20;;
57191;SDS011;43052;52.588;13.396;2023-09-12T03:57:53;23.25;;;21.02;;
57191;SDS011;43052;52.588;13.396;2023-09-12T04:00:19;24.77;;;20.83;;
57191;SDS011;43052;52.588;13.396;2023-09-12T04:02:44;24.55;;;22.15;;
57191;SDS011;43052;52.588;13.396;2023-09-12T04:05:09;22.63;;;20.48;;
57191;SDS011;43052;52.588;13.396;2023-09-12T04:07:35;22.88;;;20.65;;
57191;SDS011;43052;52.588;13.396;2023-09-12T04:10:00;24.13;;;21.73;;
57191;SDS011;43052;52.588;13.396;2023-09-12T04:12:25;22.75;;;20.35;;
57191;SDS011;43052;52.588;13.396;2023-09-12T04:14:50;23.38;;;21.00;;
57191;SDS011;43052;52.588;13.396;2023-09-12T04:17:17;23.85;;;21.42;;
57191;SDS011;43052;52.588;13.396;2023-09-12T04:19:42;24.70;;;22.08;;
57191;SDS011;43052;52.588;13.396;2023-09-12T04:22:08;23.65;;;21.30;;
57191;SDS011;43052;52.588;13.396;2023-09-12T04:24:33;23.60;;;21.23;;
57191;SDS011;43052;52.588;13.396;2023-09-12T04:26:58;23.85;;;21.42;;
57191;SDS011;43052;52.588;13.396;2023-09-12T04:29:23;23.65;;;21.15;;
57191;SDS011;43052;52.588;13.396;2023-09-12T04:31:49;24.10;;;21.88;;
57191;SDS011;43052;52.588;13.396;2023-09-12T04:34:15;26.00;;;23.13;;
57191;SDS011;43052;52.588;13.396;2023-09-12T04:36:40;23.90;;;21.40;;
57191;SDS011;43052;52.588;13.396;2023-09-12T04:39:05;26.77;;;21.67;;
57191;SDS011;43052;52.588;13.396;2023-09-12T04:41:31;23.77;;;21.25;;
57191;SDS011;43052;52.588;13.396;2023-09-12T04:43:56;24.85;;;21.17;;
57191;SDS011;43052;52.588;13.396;2023-09-12T04:46:23;24.17;;;21.40;;
57191;SDS011;43052;52.588;13.396;2023-09-12T04:48:48;26.65;;;23.38;;
57191;SDS011;43052;52.588;13.396;2023-09-12T04:51:14;26.88;;;23.33;;
57191;SDS011;43052;52.588;13.396;2023-09-12T04:53:39;24.88;;;22.23;;
57191;SDS011;43052;52.588;13.396;2023-09-12T04:56:05;25.67;;;20.67;;
57191;SDS011;43052;52.588;13.396;2023-09-12T04:58:31;23.55;;;20.83;;
57191;SDS011;43052;52.588;13.396;2023-09-12T05:00:56;23.52;;;21.00;;
57191;SDS011;43052;52.588;13.396;2023-09-12T05:03:22;26.65;;;19.73;;
57191;SDS011;43052;52.588;13.396;2023-09-12T05:05:48;23.95;;;21.38;;
57191;SDS011;43052;52.588;13.396;2023-09-12T05:08:14;22.90;;;20.38;;
57191;SDS011;43052;52.588;13.396;2023-09-12T05:10:40;22.52;;;20.10;;
57191;SDS011;43052;52.588;13.396;2023-09-12T05:13:05;25.73;;;20.67;;
57191;SDS011;43052;52.588;13.396;2023-09-12T05:15:30;23.50;;;18.95;;
57191;SDS011;43052;52.588;13.396;2023-09-12T05:17:56;25.17;;;18.75;;
57191;SDS011;43052;52.588;13.396;2023-09-12T05:20:21;25.05;;;19.83;;
57191;SDS011;43052;52.588;13.396;2023-09-12T05:22:46;23.83;;;19.88;;
57191;SDS011;43052;52.588;13.396;2023-09-12T05:25:12;21.65;;;18.45;;
57191;SDS011;43052;52.588;13.396;2023-09-12T05:27:37;27.42;;;19.52;;
57191;SDS011;43052;52.588;13.396;2023-09-12T05:30:02;24.70;;;18.92;;
57191;SDS011;43052;52.588;13.396;2023-09-12T05:32:28;21.58;;;18.58;;
57191;SDS011;43052;52.588;13.396;2023-09-12T05:34:53;31.00;;;18.48;;
57191;SDS011;43052;52.588;13.396;2023-09-12T05:37:18;18.73;;;16.73;;
57191;SDS011;43052;52.588;13.396;2023-09-12T05:39:45;25.27;;;19.23;;
57191;SDS011;43052;52.588;13.396;2023-09-12T05:42:11;27.80;;;19.20;;
57191;SDS011;43052;52.588;13.396;2023-09-12T05:44:40;28.20;;;19.20;;
57191;SDS011;43052;52.588;13.396;2023-09-12T05:47:05;47.55;;;20.50;;
57191;SDS011;43052;52.588;13.396;2023-09-12T05:49:31;55.50;;;23.58;;
57191;SDS011;43052;52.588;13.396;2023-09-12T05:52:01;45.35;;;24.02;;
57191;SDS011;43052;52.588;13.396;2023-09-12T05:54:27;42.95;;;22.02;;
57191;SDS011;43052;52.588;13.396;2023-09-12T05:56:52;40.17;;;19.48;;
57191;SDS011;43052;52.588;13.396;2023-09-12T05:59:18;44.20;;;19.73;;
57191;SDS011;43052;52.588;13.396;2023-09-12T06:01:44;53.38;;;20.77;;
57191;SDS011;43052;52.588;13.396;2023-09-12T06:04:10;33.20;;;17.90;;
57191;SDS011;43052;52.588;13.396;2023-09-12T06:06:35;35.03;;;18.20;;
57191;SDS011;43052;52.588;13.396;2023-09-12T06:09:00;32.67;;;18.92;;
57191;SDS011;43052;52.588;13.396;2023-09-12T06:11:25;36.15;;;19.83;;
57191;SDS011;43052;52.588;13.396;2023-09-12T06:13:51;38.88;;;20.25;;
57191;SDS011;43052;52.588;13.396;2023-09-12T06:16:16;31.30;;;17.52;;
57191;SDS011;43052;52.588;13.396;2023-09-12T06:18:41;26.38;;;16.15;;
57191;SDS011;43052;52.588;13.396;2023-09-12T06:21:07;55.25;;;28.35;;
57191;SDS011;43052;52.588;13.396;2023-09-12T06:23:33;31.75;;;16.48;;
57191;SDS011;43052;52.588;13.396;2023-09-12T06:25:59;35.35;;;14.77;;
57191;SDS011;43052;52.588;13.396;2023-09-12T06:28:25;22.60;;;13.65;;
57191;SDS011;43052;52.588;13.396;2023-09-12T06:30:53;24.77;;;14.15;;
57191;SDS011;43052;52.588;13.396;2023-09-12T06:33:19;21.13;;;12.83;;
57191;SDS011;43052;52.588;13.396;2023-09-12T06:35:47;19.13;;;12.73;;
57191;SDS011;43052;52.588;13.396;2023-09-12T06:38:13;19.08;;;12.68;;
57191;SDS011;43052;52.588;13.396;2023-09-12T06:40:39;24.20;;;13.80;;
57191;SDS011;43052;52.588;13.396;2023-09-12T06:43:04;22.70;;;13.70;;
57191;SDS011;43052;52.588;13.396;2023-09-12T06:45:29;17.20;;;13.20;;
57191;SDS011;43052;52.588;13.396;2023-09-12T06:47:57;23.40;;;14.02;;
57191;SDS011;43052;52.588;13.396;2023-09-12T06:50:23;18.30;;;12.68;;
57191;SDS011;43052;52.588;13.396;2023-09-12T06:52:48;17.33;;;12.67;;
57191;SDS011;43052;52.588;13.396;2023-09-12T06:55:13;15.37;;;12.43;;
57191;SDS011;43052;52.588;13.396;2023-09-12T06:57:38;16.70;;;12.15;;
57191;SDS011;43052;52.588;13.396;2023-09-12T07:00:04;26.83;;;13.63;;
57191;SDS011;43052;52.588;13.396;2023-09-12T07:02:32;21.40;;;13.13;;
57191;SDS011;43052;52.588;13.396;2023-09-12T07:04:57;19.92;;;12.38;;
57191;SDS011;43052;52.588;13.396;2023-09-12T07:07:23;16.20;;;12.32;;
57191;SDS011;43052;52.588;13.396;2023-09-12T07:09:48;59.47;;;16.20;;
57191;SDS011;43052;52.588;13.396;2023-09-12T07:12:14;17.60;;;11.80;;
57191;SDS011;43052;52.588;13.396;2023-09-12T07:14:39;19.57;;;12.07;;
57191;SDS011;43052;52.588;13.396;2023-09-12T07:17:05;19.30;;;11.60;;
57191;SDS011;43052;52.588;13.396;2023-09-12T07:19:31;16.55;;;11.40;;
57191;SDS011;43052;52.588;13.396;2023-09-12T07:21:56;17.17;;;10.70;;
57191;SDS011;43052;52.588;13.396;2023-09-12T07:24:24;19.63;;;10.85;;
57191;SDS011;43052;52.588;13.396;2023-09-12T07:26:51;27.98;;;10.57;;
57191;SDS011;43052;52.588;13.396;2023-09-12T07:29:16;11.97;;;9.23;;
57191;SDS011;43052;52.588;13.396;2023-09-12T07:31:41;13.40;;;9.17;;
57191;SDS011;43052;52.588;13.396;2023-09-12T07:34:06;15.73;;;9.38;;
57191;SDS011;43052;52.588;13.396;2023-09-12T07:36:33;16.58;;;8.70;;
57191;SDS011;43052;52.588;13.396;2023-09-12T07:38:58;16.90;;;9.53;;
57191;SDS011;43052;52.588;13.396;2023-09-12T07:41:23;55.38;;;13.50;;
57191;SDS011;43052;52.588;13.396;2023-09-12T07:43:48;13.23;;;8.67;;
57191;SDS011;43052;52.588;13.396;2023-09-12T07:46:14;15.40;;;8.70;;
57191;SDS011;43052;52.588;13.396;2023-09-12T07:48:39;13.52;;;8.07;;
57191;SDS011;43052;52.588;13.396;2023-09-12T07:51:14;9.40;;;8.03;;
57191;SDS011;43052;52.588;13.396;2023-09-12T07:53:40;10.70;;;7.97;;
57191;SDS011;43052;52.588;13.396;2023-09-12T07:56:06;12.43;;;8.35;;
57191;SDS011;43052;52.588;13.396;2023-09-12T07:58:32;13.93;;;8.75;;
57191;SDS011;43052;52.588;13.396;2023-09-12T08:00:58;10.87;;;7.50;;
57191;SDS011;43052;52.588;13.396;2023-09-12T08:03:23;12.27;;;8.37;;
57191;SDS011;43052;52.588;13.396;2023-09-12T08:05:55;12.23;;;7.78;;
57191;SDS011;43052;52.588;13.396;2023-09-12T08:08:21;11.00;;;7.35;;
57191;SDS011;43052;52.588;13.396;2023-09-12T08:10:47;9.40;;;7.80;;
57191;SDS011;43052;52.588;13.396;2023-09-12T08:13:12;13.47;;;8.07;;
57191;SDS011;43052;52.588;13.396;2023-09-12T08:15:37;11.10;;;7.63;;
57191;SDS011;43052;52.588;13.396;2023-09-12T08:18:02;12.77;;;7.63;;
57191;SDS011;43052;52.588;13.396;2023-09-12T08:20:29;10.10;;;6.35;;
57191;SDS011;43052;52.588;13.396;2023-09-12T08:22:54;12.10;;;7.13;;
57191;SDS011;43052;52.588;13.396;2023-09-12T08:25:20;10.35;;;6.40;;
57191;SDS011;43052;52.588;13.396;2023-09-12T08:27:46;67.40;;;12.43;;
57191;SDS011;43052;52.588;13.396;2023-09-12T08:30:11;13.30;;;6.80;;
57191;SDS011;43052;52.588;13.396;2023-09-12T08:32:37;22.58;;;7.93;;
57191;SDS011;43052;52.588;13.396;2023-09-12T08:35:05;126.55;;;19.05;;
57191;SDS011;43052;52.588;13.396;2023-09-12T08:37:31;16.00;;;6.38;;
57191;SDS011;43052;52.588;13.396;2023-09-12T08:39:56;119.30;;;16.67;;
57191;SDS011;43052;52.588;13.396;2023-09-12T08:42:24;37.60;;;9.35;;
57191;SDS011;43052;52.588;13.396;2023-09-12T08:44:52;45.67;;;10.45;;
57191;SDS011;43052;52.588;13.396;2023-09-12T08:47:18;13.27;;;6.70;;
57191;SDS011;43052;52.588;13.396;2023-09-12T08:49:46;18.63;;;7.30;;
57191;SDS011;43052;52.588;13.396;2023-09-12T08:52:12;24.47;;;7.40;;
57191;SDS011;43052;52.588;13.396;2023-09-12T08:54:37;9.55;;;6.70;;
57191;SDS011;43052;52.588;13.396;2023-09-12T08:57:03;13.60;;;6.47;;
57191;SDS011;43052;52.588;13.396;2023-09-12T08:59:33;11.20;;;6.40;;
57191;SDS011;43052;52.588;13.396;2023-09-12T09:01:59;10.45;;;6.50;;
57191;SDS011;43052;52.588;13.396;2023-09-12T09:04:25;9.52;;;5.82;;
57191;SDS011;43052;52.588;13.396;2023-09-12T09:06:54;13.80;;;7.03;;
57191;SDS011;43052;52.588;13.396;2023-09-12T09:09:22;12.52;;;6.65;;
57191;SDS011;43052;52.588;13.396;2023-09-12T09:11:48;10.30;;;6.32;;
57191;SDS011;43052;52.588;13.396;2023-09-12T09:14:14;13.23;;;6.33;;
57191;SDS011;43052;52.588;13.396;2023-09-12T09:16:39;12.40;;;6.20;;
57191;SDS011;43052;52.588;13.396;2023-09-12T09:19:05;13.10;;;7.00;;
57191;SDS011;43052;52.588;13.396;2023-09-12T09:21:34;10.27;;;6.53;;
57191;SDS011;43052;52.588;13.396;2023-09-12T09:24:04;11.65;;;6.13;;
57191;SDS011;43052;52.588;13.396;2023-09-12T09:29:08;12.23;;;6.47;;
57191;SDS011;43052;52.588;13.396;2023-09-12T09:31:35;12.13;;;7.07;;
57191;SDS011;43052;52.588;13.396;2023-09-12T09:34:02;11.95;;;6.97;;
57191;SDS011;43052;52.588;13.396;2023-09-12T09:36:28;15.38;;;7.13;;
57191;SDS011;43052;52.588;13.396;2023-09-12T09:38:56;13.85;;;7.57;;
57191;SDS011;43052;52.588;13.396;2023-09-12T09:41:22;10.75;;;6.97;;
57191;SDS011;43052;52.588;13.396;2023-09-12T09:43:50;11.82;;;7.38;;
57191;SDS011;43052;52.588;13.396;2023-09-12T09:46:16;11.95;;;7.38;;
57191;SDS011;43052;52.588;13.396;2023-09-12T09:48:48;11.35;;;7.20;;
57191;SDS011;43052;52.588;13.396;2023-09-12T09:51:14;12.88;;;8.40;;
57191;SDS011;43052;52.588;13.396;2023-09-12T09:53:39;13.52;;;8.45;;
57191;SDS011;43052;52.588;13.396;2023-09-12T09:56:08;14.73;;;8.20;;
57191;SDS011;43052;52.588;13.396;2023-09-12T09:58:35;19.98;;;8.23;;
57191;SDS011;43052;52.588;13.396;2023-09-12T10:01:01;13.35;;;7.53;;
57191;SDS011;43052;52.588;13.396;2023-09-12T10:03:28;11.55;;;8.10;;
57191;SDS011;43052;52.588;13.396;2023-09-12T10:05:56;15.82;;;8.45;;
57191;SDS011;43052;52.588;13.396;2023-09-12T10:08:27;15.82;;;7.82;;
57191;SDS011;43052;52.588;13.396;2023-09-12T10:10:53;12.50;;;7.50;;
57191;SDS011;43052;52.588;13.396;2023-09-12T10:13:18;13.43;;;7.30;;
57191;SDS011;43052;52.588;13.396;2023-09-12T10:15:45;13.52;;;7.88;;
57191;SDS011;43052;52.588;13.396;2023-09-12T10:18:14;12.73;;;7.80;;
57191;SDS011;43052;52.588;13.396;2023-09-12T10:20:55;12.18;;;8.00;;
57191;SDS011;43052;52.588;13.396;2023-09-12T10:26:06;13.50;;;7.90;;
57191;SDS011;43052;52.588;13.396;2023-09-12T10:28:34;12.55;;;7.80;;
57191;SDS011;43052;52.588;13.396;2023-09-12T10:31:00;15.48;;;8.02;;
57191;SDS011;43052;52.588;13.396;2023-09-12T10:33:26;13.55;;;7.82;;
57191;SDS011;43052;52.588;13.396;2023-09-12T10:35:56;13.07;;;7.55;;
57191;SDS011;43052;52.588;13.396;2023-09-12T10:38:22;10.30;;;7.68;;
57191;SDS011;43052;52.588;13.396;2023-09-12T10:40:51;11.00;;;7.13;;
57191;SDS011;43052;52.588;13.396;2023-09-12T10:43:19;14.70;;;8.13;;
57191;SDS011;43052;52.588;13.396;2023-09-12T10:45:46;12.02;;;7.03;;
57191;SDS011;43052;52.588;13.396;2023-09-12T10:48:13;12.20;;;7.78;;
57191;SDS011;43052;52.588;13.396;2023-09-12T10:50:39;10.90;;;7.95;;
57191;SDS011;43052;52.588;13.396;2023-09-12T10:53:12;12.38;;;8.15;;
57191;SDS011;43052;52.588;13.396;2023-09-12T10:55:39;11.88;;;7.88;;
57191;SDS011;43052;52.588;13.396;2023-09-12T10:58:05;18.70;;;8.38;;
57191;SDS011;43052;52.588;13.396;2023-09-12T11:00:35;13.63;;;8.10;;
57191;SDS011;43052;52.588;13.396;2023-09-12T11:05:52;13.68;;;7.43;;
57191;SDS011;43052;52.588;13.396;2023-09-12T11:08:19;16.92;;;8.10;;
57191;SDS011;43052;52.588;13.396;2023-09-12T11:10:45;12.32;;;6.35;;
57191;SDS011;43052;52.588;13.396;2023-09-12T11:13:44;12.98;;;6.68;;
57191;SDS011;43052;52.588;13.396;2023-09-12T11:16:15;12.77;;;6.47;;
57191;SDS011;43052;52.588;13.396;2023-09-12T11:21:37;11.73;;;7.87;;
57191;SDS011;43052;52.588;13.396;2023-09-12T11:24:03;6.88;;;6.03;;
57191;SDS011;43052;52.588;13.396;2023-09-12T11:26:29;14.10;;;6.82;;
57191;SDS011;43052;52.588;13.396;2023-09-12T11:28:54;10.43;;;6.50;;
57191;SDS011;43052;52.588;13.396;2023-09-12T11:31:26;10.07;;;5.90;;
57191;SDS011;43052;52.588;13.396;2023-09-12T11:33:54;8.02;;;6.05;;
57191;SDS011;43052;52.588;13.396;2023-09-12T11:36:19;10.63;;;7.22;;
57191;SDS011;43052;52.588;13.396;2023-09-12T11:38:48;9.77;;;6.35;;
57191;SDS011;43052;52.588;13.396;2023-09-12T11:41:14;8.27;;;6.00;;
57191;SDS011;43052;52.588;13.396;2023-09-12T11:43:59;11.65;;;6.28;;
57191;SDS011;43052;52.588;13.396;2023-09-12T11:46:29;10.50;;;6.38;;
57191;SDS011;43052;52.588;13.396;2023-09-12T11:48:54;10.25;;;6.15;;
57191;SDS011;43052;52.588;13.396;2023-09-12T11:51:21;11.65;;;6.38;;
57191;SDS011;43052;52.588;13.396;2023-09-12T11:53:51;12.02;;;6.20;;
57191;SDS011;43052;52.588;13.396;2023-09-12T11:56:18;11.82;;;6.43;;
57191;SDS011;43052;52.588;13.396;2023-09-12T11:58:43;11.23;;;6.60;;
57191;SDS011;43052;52.588;13.396;2023-09-12T12:01:08;8.37;;;6.80;;
57191;SDS011;43052;52.588;13.396;2023-09-12T12:03:36;13.65;;;6.32;;
57191;SDS011;43052;52.588;13.396;2023-09-12T12:06:02;11.10;;;6.82;;
57191;SDS011;43052;52.588;13.396;2023-09-12T12:08:29;12.52;;;6.75;;
57191;SDS011;43052;52.588;13.396;2023-09-12T12:10:56;12.20;;;6.60;;
57191;SDS011;43052;52.588;13.396;2023-09-12T12:13:23;11.02;;;5.97;;
57191;SDS011;43052;52.588;13.396;2023-09-12T12:15:49;13.05;;;6.72;;
57191;SDS011;43052;52.588;13.396;2023-09-12T12:18:14;11.70;;;6.60;;
57191;SDS011;43052;52.588;13.396;2023-09-12T12:20:40;11.93;;;6.55;;
57191;SDS011;43052;52.588;13.396;2023-09-12T12:23:05;9.68;;;5.82;;
57191;SDS011;43052;52.588;13.396;2023-09-12T12:25:34;10.20;;;6.32;;
57191;SDS011;43052;52.588;13.396;2023-09-12T12:28:00;11.68;;;6.10;;
57191;SDS011;43052;52.588;13.396;2023-09-12T12:30:29;9.70;;;6.03;;
57191;SDS011;43052;52.588;13.396;2023-09-12T12:32:55;10.68;;;6.38;;
57191;SDS011;43052;52.588;13.396;2023-09-12T12:35:21;8.60;;;6.03;;
57191;SDS011;43052;52.588;13.396;2023-09-12T12:37:48;12.35;;;6.40;;
57191;SDS011;43052;52.588;13.396;2023-09-12T12:40:14;12.45;;;5.93;;
57191;SDS011;43052;52.588;13.396;2023-09-12T12:42:40;11.48;;;6.57;;
57191;SDS011;43052;52.588;13.396;2023-09-12T12:45:13;8.70;;;6.00;;
57191;SDS011;43052;52.588;13.396;2023-09-12T12:47:40;9.00;;;5.72;;
57191;SDS011;43052;52.588;13.396;2023-09-12T12:50:15;8.00;;;5.75;;
57191;SDS011;43052;52.588;13.396;2023-09-12T12:52:45;9.65;;;5.50;;
57191;SDS011;43052;52.588;13.396;2023-09-12T12:55:14;10.00;;;6.00;;
57191;SDS011;43052;52.588;13.396;2023-09-12T12:57:42;10.30;;;6.00;;
57191;SDS011;43052;52.588;13.396;2023-09-12T13:00:09;9.27;;;5.80;;
57191;SDS011;43052;52.588;13.396;2023-09-12T13:02:39;10.48;;;5.50;;
57191;SDS011;43052;52.588;13.396;2023-09-12T13:05:06;11.95;;;6.55;;
57191;SDS011;43052;52.588;13.396;2023-09-12T13:07:43;7.60;;;6.00;;
57191;SDS011;43052;52.588;13.396;2023-09-12T13:10:09;8.98;;;6.15;;
57191;SDS011;43052;52.588;13.396;2023-09-12T13:12:34;10.18;;;5.88;;
57191;SDS011;43052;52.588;13.396;2023-09-12T13:14:59;8.83;;;5.37;;
57191;SDS011;43052;52.588;13.396;2023-09-12T13:17:25;10.43;;;6.60;;
57191;SDS011;43052;52.588;13.396;2023-09-12T13:19:50;17.75;;;6.47;;
57191;SDS011;43052;52.588;13.396;2023-09-12T13:22:15;12.93;;;6.00;;
57191;SDS011;43052;52.588;13.396;2023-09-12T13:24:41;11.48;;;5.82;;
57191;SDS011;43052;52.588;13.396;2023-09-12T13:27:06;22.38;;;6.82;;
57191;SDS011;43052;52.588;13.396;2023-09-12T13:29:31;11.30;;;5.87;;
57191;SDS011;43052;52.588;13.396;2023-09-12T13:31:57;10.45;;;5.82;;
57191;SDS011;43052;52.588;13.396;2023-09-12T13:34:22;11.73;;;6.13;;
57191;SDS011;43052;52.588;13.396;2023-09-12T13:36:47;11.45;;;6.22;;
57191;SDS011;43052;52.588;13.396;2023-09-12T13:39:13;9.18;;;5.97;;
57191;SDS011;43052;52.588;13.396;2023-09-12T13:41:39;9.82;;;5.82;;
57191;SDS011;43052;52.588;13.396;2023-09-12T13:44:05;9.70;;;5.72;;
57191;SDS011;43052;52.588;13.396;2023-09-12T13:46:30;9.50;;;5.32;;
57191;SDS011;43052;52.588;13.396;2023-09-12T13:48:55;12.47;;;6.10;;
57191;SDS011;43052;52.588;13.396;2023-09-12T13:51:25;9.85;;;5.53;;
57191;SDS011;43052;52.588;13.396;2023-09-12T13:53:50;9.33;;;5.50;;
57191;SDS011;43052;52.588;13.396;2023-09-12T13:56:15;11.60;;;6.23;;
57191;SDS011;43052;52.588;13.396;2023-09-12T13:58:40;8.83;;;5.53;;
57191;SDS011;43052;52.588;13.396;2023-09-12T14:01:06;10.77;;;5.80;;
57191;SDS011;43052;52.588;13.396;2023-09-12T14:03:31;11.17;;;6.17;;
57191;SDS011;43052;52.588;13.396;2023-09-12T14:05:56;8.80;;;5.43;;
57191;SDS011;43052;52.588;13.396;2023-09-12T14:08:21;10.80;;;6.13;;
57191;SDS011;43052;52.588;13.396;2023-09-12T14:10:47;9.17;;;5.27;;
57191;SDS011;43052;52.588;13.396;2023-09-12T14:13:12;11.73;;;5.70;;
57191;SDS011;43052;52.588;13.396;2023-09-12T14:15:37;8.90;;;5.83;;
57191;SDS011;43052;52.588;13.396;2023-09-12T14:18:03;12.07;;;5.70;;
57191;SDS011;43052;52.588;13.396;2023-09-12T14:20:28;11.70;;;6.25;;
57191;SDS011;43052;52.588;13.396;2023-09-12T14:22:53;9.83;;;5.90;;
57191;SDS011;43052;52.588;13.396;2023-09-12T14:25:18;15.70;;;6.22;;